sensor_id;sensor_type;location;lat;lon;timestamp;P1;durP1;ratioP1;P2;durP2;ratioP2
39896;SDS011;25567;48.276;14.242;2023-09-19T00:02:18;4.80;;;2.50;;
39896;SDS011;25567;48.276;14.242;2023-09-19T00:04:45;5.00;;;2.63;;
39896;SDS011;25567;48.276;14.242;2023-09-19T00:07:11;5.40;;;2.17;;
39896;SDS011;25567;48.276;14.242;2023-09-19T00:09:38;10.70;;;2.50;;
39896;SDS011;25567;48.276;14.242;2023-09-19T00:12:05;7.88;;;2.25;;
39896;SDS011;25567;48.276;14.242;2023-09-19T00:14:32;6.00;;;2.03;;
39896;SDS011;25567;48.276;14.242;2023-09-19T00:17:04;7.03;;;2.45;;
39896;SDS011;25567;48.276;14.242;2023-09-19T00:19:32;7.90;;;2.55;;
39896;SDS011;25567;48.276;14.242;2023-09-19T00:21:58;8.77;;;2.47;;
39896;SDS011;25567;48.276;14.242;2023-09-19T00:24:25;4.10;;;2.05;;
39896;SDS011;25567;48.276;14.242;2023-09-19T00:26:52;4.55;;;2.33;;
39896;SDS011;25567;48.276;14.242;2023-09-19T00:29:18;10.45;;;2.25;;
39896;SDS011;25567;48.276;14.242;2023-09-19T00:31:46;6.32;;;2.25;;
39896;SDS011;25567;48.276;14.242;2023-09-19T00:34:12;5.25;;;2.25;;
39896;SDS011;25567;48.276;14.242;2023-09-19T00:36:39;8.35;;;2.38;;
39896;SDS011;25567;48.276;14.242;2023-09-19T00:39:06;5.93;;;2.30;;
39896;SDS011;25567;48.276;14.242;2023-09-19T00:41:32;8.10;;;2.10;;
39896;SDS011;25567;48.276;14.242;2023-09-19T00:44:02;7.05;;;2.55;;
39896;SDS011;25567;48.276;14.242;2023-09-19T00:46:30;4.00;;;2.50;;
39896;SDS011;25567;48.276;14.242;2023-09-19T00:48:59;5.13;;;2.70;;
39896;SDS011;25567;48.276;14.242;2023-09-19T00:51:26;4.90;;;2.20;;
39896;SDS011;25567;48.276;14.242;2023-09-19T00:53:54;5.25;;;2.75;;
39896;SDS011;25567;48.276;14.242;2023-09-19T00:56:20;5.70;;;2.28;;
39896;SDS011;25567;48.276;14.242;2023-09-19T00:58:47;5.75;;;2.95;;
39896;SDS011;25567;48.276;14.242;2023-09-19T01:01:14;4.05;;;2.20;;
39896;SDS011;25567;48.276;14.242;2023-09-19T01:03:42;7.32;;;2.83;;
39896;SDS011;25567;48.276;14.242;2023-09-19T01:06:09;6.90;;;2.50;;
39896;SDS011;25567;48.276;14.242;2023-09-19T01:08:36;6.47;;;2.45;;
39896;SDS011;25567;48.276;14.242;2023-09-19T01:11:09;9.02;;;2.67;;
39896;SDS011;25567;48.276;14.242;2023-09-19T01:16:25;8.57;;;2.92;;
39896;SDS011;25567;48.276;14.242;2023-09-19T01:19:00;9.35;;;3.05;;
39896;SDS011;25567;48.276;14.242;2023-09-19T01:21:32;7.03;;;3.28;;
39896;SDS011;25567;48.276;14.242;2023-09-19T01:24:16;8.40;;;3.40;;
39896;SDS011;25567;48.276;14.242;2023-09-19T01:26:58;8.85;;;3.50;;
39896;SDS011;25567;48.276;14.242;2023-09-19T01:32:01;8.98;;;3.78;;
39896;SDS011;25567;48.276;14.242;2023-09-19T01:37:18;7.10;;;3.70;;
39896;SDS011;25567;48.276;14.242;2023-09-19T01:39:51;5.75;;;3.13;;
39896;SDS011;25567;48.276;14.242;2023-09-19T01:42:31;11.25;;;3.75;;
39896;SDS011;25567;48.276;14.242;2023-09-19T01:45:03;9.68;;;4.05;;
39896;SDS011;25567;48.276;14.242;2023-09-19T01:47:33;7.70;;;3.88;;
39896;SDS011;25567;48.276;14.242;2023-09-19T01:50:07;11.50;;;4.00;;
39896;SDS011;25567;48.276;14.242;2023-09-19T01:52:38;7.57;;;3.53;;
39896;SDS011;25567;48.276;14.242;2023-09-19T01:55:09;11.10;;;4.13;;
39896;SDS011;25567;48.276;14.242;2023-09-19T01:57:46;11.80;;;4.28;;
39896;SDS011;25567;48.276;14.242;2023-09-19T02:00:16;6.63;;;4.00;;
39896;SDS011;25567;48.276;14.242;2023-09-19T02:02:45;17.92;;;4.53;;
39896;SDS011;25567;48.276;14.242;2023-09-19T02:05:21;15.77;;;4.60;;
39896;SDS011;25567;48.276;14.242;2023-09-19T02:07:49;12.37;;;4.07;;
39896;SDS011;25567;48.276;14.242;2023-09-19T02:10:16;12.85;;;4.25;;
39896;SDS011;25567;48.276;14.242;2023-09-19T02:12:43;7.20;;;3.35;;
39896;SDS011;25567;48.276;14.242;2023-09-19T02:15:10;12.95;;;3.45;;
39896;SDS011;25567;48.276;14.242;2023-09-19T02:17:36;6.78;;;2.83;;
39896;SDS011;25567;48.276;14.242;2023-09-19T02:20:04;9.05;;;3.25;;
39896;SDS011;25567;48.276;14.242;2023-09-19T02:22:41;7.97;;;2.92;;
39896;SDS011;25567;48.276;14.242;2023-09-19T02:25:08;4.13;;;2.08;;
39896;SDS011;25567;48.276;14.242;2023-09-19T02:27:34;4.57;;;2.08;;
39896;SDS011;25567;48.276;14.242;2023-09-19T02:30:02;8.48;;;2.03;;
39896;SDS011;25567;48.276;14.242;2023-09-19T02:32:29;6.13;;;1.70;;
39896;SDS011;25567;48.276;14.242;2023-09-19T02:34:57;6.40;;;1.50;;
39896;SDS011;25567;48.276;14.242;2023-09-19T02:37:27;6.10;;;1.55;;
39896;SDS011;25567;48.276;14.242;2023-09-19T02:39:53;9.25;;;2.55;;
39896;SDS011;25567;48.276;14.242;2023-09-19T02:42:20;7.60;;;2.10;;
39896;SDS011;25567;48.276;14.242;2023-09-19T02:44:47;11.02;;;2.53;;
39896;SDS011;25567;48.276;14.242;2023-09-19T02:47:14;9.88;;;2.05;;
39896;SDS011;25567;48.276;14.242;2023-09-19T02:49:43;4.53;;;1.92;;
39896;SDS011;25567;48.276;14.242;2023-09-19T02:52:09;4.53;;;1.80;;
39896;SDS011;25567;48.276;14.242;2023-09-19T02:54:37;6.43;;;1.80;;
39896;SDS011;25567;48.276;14.242;2023-09-19T02:57:04;2.58;;;1.60;;
39896;SDS011;25567;48.276;14.242;2023-09-19T02:59:32;6.05;;;2.00;;
39896;SDS011;25567;48.276;14.242;2023-09-19T03:01:59;6.32;;;2.00;;
39896;SDS011;25567;48.276;14.242;2023-09-19T03:04:27;8.43;;;2.25;;
39896;SDS011;25567;48.276;14.242;2023-09-19T03:06:53;9.13;;;2.33;;
39896;SDS011;25567;48.276;14.242;2023-09-19T03:09:25;12.65;;;2.50;;
39896;SDS011;25567;48.276;14.242;2023-09-19T03:11:51;5.65;;;2.22;;
39896;SDS011;25567;48.276;14.242;2023-09-19T03:14:18;5.30;;;2.63;;
39896;SDS011;25567;48.276;14.242;2023-09-19T03:16:46;10.45;;;2.85;;
39896;SDS011;25567;48.276;14.242;2023-09-19T03:19:13;9.20;;;2.70;;
39896;SDS011;25567;48.276;14.242;2023-09-19T03:21:41;4.72;;;2.58;;
39896;SDS011;25567;48.276;14.242;2023-09-19T03:24:08;6.32;;;3.00;;
39896;SDS011;25567;48.276;14.242;2023-09-19T03:26:34;10.30;;;3.78;;
39896;SDS011;25567;48.276;14.242;2023-09-19T03:29:05;9.38;;;3.75;;
39896;SDS011;25567;48.276;14.242;2023-09-19T03:31:36;10.88;;;3.95;;
39896;SDS011;25567;48.276;14.242;2023-09-19T03:34:05;8.40;;;4.20;;
39896;SDS011;25567;48.276;14.242;2023-09-19T03:36:32;7.88;;;4.13;;
39896;SDS011;25567;48.276;14.242;2023-09-19T03:38:59;9.02;;;3.97;;
39896;SDS011;25567;48.276;14.242;2023-09-19T03:41:25;9.57;;;4.55;;
39896;SDS011;25567;48.276;14.242;2023-09-19T03:43:52;8.48;;;4.30;;
39896;SDS011;25567;48.276;14.242;2023-09-19T03:46:19;9.07;;;3.92;;
39896;SDS011;25567;48.276;14.242;2023-09-19T03:48:45;8.50;;;4.07;;
39896;SDS011;25567;48.276;14.242;2023-09-19T03:51:12;13.05;;;5.22;;
39896;SDS011;25567;48.276;14.242;2023-09-19T03:53:38;9.25;;;4.72;;
39896;SDS011;25567;48.276;14.242;2023-09-19T03:56:05;14.27;;;5.40;;
39896;SDS011;25567;48.276;14.242;2023-09-19T03:58:32;12.85;;;6.75;;
39896;SDS011;25567;48.276;14.242;2023-09-19T04:01:01;12.23;;;7.47;;
39896;SDS011;25567;48.276;14.242;2023-09-19T04:03:28;14.50;;;7.78;;
39896;SDS011;25567;48.276;14.242;2023-09-19T04:06:02;11.82;;;7.20;;
39896;SDS011;25567;48.276;14.242;2023-09-19T04:08:29;16.23;;;8.05;;
39896;SDS011;25567;48.276;14.242;2023-09-19T04:10:56;15.65;;;8.02;;
39896;SDS011;25567;48.276;14.242;2023-09-19T04:13:23;13.88;;;7.20;;
39896;SDS011;25567;48.276;14.242;2023-09-19T04:15:49;13.80;;;7.43;;
39896;SDS011;25567;48.276;14.242;2023-09-19T04:18:16;14.98;;;7.70;;
39896;SDS011;25567;48.276;14.242;2023-09-19T04:20:47;17.38;;;9.15;;
39896;SDS011;25567;48.276;14.242;2023-09-19T04:23:14;19.45;;;8.85;;
39896;SDS011;25567;48.276;14.242;2023-09-19T04:25:40;15.60;;;9.13;;
39896;SDS011;25567;48.276;14.242;2023-09-19T04:28:07;15.27;;;8.40;;
39896;SDS011;25567;48.276;14.242;2023-09-19T04:30:34;20.75;;;9.68;;
39896;SDS011;25567;48.276;14.242;2023-09-19T04:33:01;14.27;;;7.07;;
39896;SDS011;25567;48.276;14.242;2023-09-19T04:35:32;18.38;;;7.63;;
39896;SDS011;25567;48.276;14.242;2023-09-19T04:37:58;9.70;;;6.20;;
39896;SDS011;25567;48.276;14.242;2023-09-19T04:40:25;12.07;;;6.70;;
39896;SDS011;25567;48.276;14.242;2023-09-19T04:42:53;15.77;;;8.07;;
39896;SDS011;25567;48.276;14.242;2023-09-19T04:45:23;13.90;;;6.43;;
39896;SDS011;25567;48.276;14.242;2023-09-19T04:47:50;11.38;;;4.82;;
39896;SDS011;25567;48.276;14.242;2023-09-19T04:50:17;8.82;;;3.95;;
39896;SDS011;25567;48.276;14.242;2023-09-19T04:52:44;12.02;;;3.50;;
39896;SDS011;25567;48.276;14.242;2023-09-19T04:55:12;8.15;;;3.65;;
39896;SDS011;25567;48.276;14.242;2023-09-19T04:57:47;12.82;;;3.40;;
39896;SDS011;25567;48.276;14.242;2023-09-19T05:00:14;7.43;;;2.90;;
39896;SDS011;25567;48.276;14.242;2023-09-19T05:02:41;7.78;;;2.58;;
39896;SDS011;25567;48.276;14.242;2023-09-19T05:05:09;4.78;;;2.22;;
39896;SDS011;25567;48.276;14.242;2023-09-19T05:07:38;6.95;;;2.90;;
39896;SDS011;25567;48.276;14.242;2023-09-19T05:10:06;17.00;;;4.00;;
39896;SDS011;25567;48.276;14.242;2023-09-19T05:12:36;11.70;;;4.25;;
39896;SDS011;25567;48.276;14.242;2023-09-19T05:15:03;7.40;;;3.20;;
39896;SDS011;25567;48.276;14.242;2023-09-19T05:17:30;9.80;;;3.00;;
39896;SDS011;25567;48.276;14.242;2023-09-19T05:19:57;6.70;;;2.85;;
39896;SDS011;25567;48.276;14.242;2023-09-19T05:22:39;12.85;;;3.25;;
39896;SDS011;25567;48.276;14.242;2023-09-19T05:25:07;8.18;;;4.35;;
39896;SDS011;25567;48.276;14.242;2023-09-19T05:27:34;17.38;;;5.53;;
39896;SDS011;25567;48.276;14.242;2023-09-19T05:30:00;10.63;;;4.18;;
39896;SDS011;25567;48.276;14.242;2023-09-19T05:32:27;9.50;;;4.20;;
39896;SDS011;25567;48.276;14.242;2023-09-19T05:34:53;12.63;;;3.83;;
39896;SDS011;25567;48.276;14.242;2023-09-19T05:37:23;11.73;;;4.32;;
39896;SDS011;25567;48.276;14.242;2023-09-19T05:39:52;7.82;;;3.50;;
39896;SDS011;25567;48.276;14.242;2023-09-19T05:42:21;15.35;;;4.25;;
39896;SDS011;25567;48.276;14.242;2023-09-19T05:44:48;10.88;;;4.32;;
39896;SDS011;25567;48.276;14.242;2023-09-19T05:47:16;9.48;;;4.20;;
39896;SDS011;25567;48.276;14.242;2023-09-19T05:49:42;12.93;;;5.00;;
39896;SDS011;25567;48.276;14.242;2023-09-19T05:52:10;15.27;;;4.65;;
39896;SDS011;25567;48.276;14.242;2023-09-19T05:54:36;11.77;;;4.95;;
39896;SDS011;25567;48.276;14.242;2023-09-19T05:57:04;12.50;;;4.88;;
39896;SDS011;25567;48.276;14.242;2023-09-19T05:59:30;9.75;;;3.97;;
39896;SDS011;25567;48.276;14.242;2023-09-19T06:01:57;17.70;;;4.60;;
39896;SDS011;25567;48.276;14.242;2023-09-19T06:04:23;12.10;;;4.50;;
39896;SDS011;25567;48.276;14.242;2023-09-19T06:06:50;9.52;;;3.35;;
39896;SDS011;25567;48.276;14.242;2023-09-19T06:09:17;16.00;;;3.50;;
39896;SDS011;25567;48.276;14.242;2023-09-19T06:11:45;7.82;;;3.83;;
39896;SDS011;25567;48.276;14.242;2023-09-19T06:14:11;10.80;;;4.07;;
39896;SDS011;25567;48.276;14.242;2023-09-19T06:16:38;8.60;;;3.65;;
39896;SDS011;25567;48.276;14.242;2023-09-19T06:19:05;10.82;;;3.88;;
39896;SDS011;25567;48.276;14.242;2023-09-19T06:21:35;7.75;;;3.70;;
39896;SDS011;25567;48.276;14.242;2023-09-19T06:24:02;11.48;;;3.97;;
39896;SDS011;25567;48.276;14.242;2023-09-19T06:26:29;10.85;;;2.88;;
39896;SDS011;25567;48.276;14.242;2023-09-19T06:28:57;6.95;;;3.00;;
39896;SDS011;25567;48.276;14.242;2023-09-19T06:31:24;11.82;;;3.30;;
39896;SDS011;25567;48.276;14.242;2023-09-19T06:33:53;12.70;;;3.22;;
39896;SDS011;25567;48.276;14.242;2023-09-19T06:36:19;4.82;;;2.70;;
39896;SDS011;25567;48.276;14.242;2023-09-19T06:38:46;12.30;;;3.60;;
39896;SDS011;25567;48.276;14.242;2023-09-19T06:41:14;7.38;;;2.85;;
39896;SDS011;25567;48.276;14.242;2023-09-19T06:43:43;5.10;;;2.90;;
39896;SDS011;25567;48.276;14.242;2023-09-19T06:46:10;10.27;;;2.67;;
39896;SDS011;25567;48.276;14.242;2023-09-19T06:48:39;7.13;;;2.47;;
39896;SDS011;25567;48.276;14.242;2023-09-19T06:51:06;11.20;;;3.20;;
39896;SDS011;25567;48.276;14.242;2023-09-19T06:53:34;6.55;;;2.67;;
39896;SDS011;25567;48.276;14.242;2023-09-19T06:56:02;7.22;;;2.10;;
39896;SDS011;25567;48.276;14.242;2023-09-19T06:58:29;6.97;;;2.33;;
39896;SDS011;25567;48.276;14.242;2023-09-19T07:00:56;4.70;;;2.28;;
39896;SDS011;25567;48.276;14.242;2023-09-19T07:03:23;6.75;;;2.22;;
39896;SDS011;25567;48.276;14.242;2023-09-19T07:05:52;6.70;;;2.08;;
39896;SDS011;25567;48.276;14.242;2023-09-19T07:08:22;9.82;;;2.33;;
39896;SDS011;25567;48.276;14.242;2023-09-19T07:10:49;14.93;;;2.28;;
39896;SDS011;25567;48.276;14.242;2023-09-19T07:13:16;6.20;;;1.77;;
39896;SDS011;25567;48.276;14.242;2023-09-19T07:15:44;6.68;;;2.65;;
39896;SDS011;25567;48.276;14.242;2023-09-19T07:18:13;6.47;;;2.22;;
39896;SDS011;25567;48.276;14.242;2023-09-19T07:20:41;8.07;;;2.00;;
39896;SDS011;25567;48.276;14.242;2023-09-19T07:23:16;9.85;;;2.53;;
39896;SDS011;25567;48.276;14.242;2023-09-19T07:25:42;5.68;;;2.33;;
39896;SDS011;25567;48.276;14.242;2023-09-19T07:28:09;8.73;;;1.88;;
39896;SDS011;25567;48.276;14.242;2023-09-19T07:30:36;7.18;;;2.17;;
39896;SDS011;25567;48.276;14.242;2023-09-19T07:33:03;5.05;;;2.22;;
39896;SDS011;25567;48.276;14.242;2023-09-19T07:35:31;10.77;;;2.53;;
39896;SDS011;25567;48.276;14.242;2023-09-19T07:37:58;5.30;;;2.00;;
39896;SDS011;25567;48.276;14.242;2023-09-19T07:40:27;3.45;;;1.90;;
39896;SDS011;25567;48.276;14.242;2023-09-19T07:42:55;8.20;;;1.92;;
39896;SDS011;25567;48.276;14.242;2023-09-19T07:45:22;3.00;;;1.73;;
39896;SDS011;25567;48.276;14.242;2023-09-19T07:47:49;7.25;;;2.20;;
39896;SDS011;25567;48.276;14.242;2023-09-19T07:50:16;3.90;;;1.95;;
39896;SDS011;25567;48.276;14.242;2023-09-19T07:52:45;4.72;;;1.90;;
39896;SDS011;25567;48.276;14.242;2023-09-19T07:55:12;7.45;;;2.00;;
39896;SDS011;25567;48.276;14.242;2023-09-19T07:57:45;7.32;;;2.05;;
39896;SDS011;25567;48.276;14.242;2023-09-19T08:00:12;3.65;;;1.73;;
39896;SDS011;25567;48.276;14.242;2023-09-19T08:02:39;7.07;;;1.92;;
39896;SDS011;25567;48.276;14.242;2023-09-19T08:05:07;9.20;;;2.50;;
39896;SDS011;25567;48.276;14.242;2023-09-19T08:07:37;8.13;;;2.20;;
39896;SDS011;25567;48.276;14.242;2023-09-19T08:10:04;9.07;;;2.38;;
39896;SDS011;25567;48.276;14.242;2023-09-19T08:12:31;4.07;;;2.22;;
39896;SDS011;25567;48.276;14.242;2023-09-19T08:14:58;8.13;;;2.67;;
39896;SDS011;25567;48.276;14.242;2023-09-19T08:17:25;4.05;;;1.95;;
39896;SDS011;25567;48.276;14.242;2023-09-19T08:19:52;10.50;;;2.03;;
39896;SDS011;25567;48.276;14.242;2023-09-19T08:22:19;4.43;;;2.05;;
39896;SDS011;25567;48.276;14.242;2023-09-19T08:24:46;4.57;;;1.90;;
39896;SDS011;25567;48.276;14.242;2023-09-19T08:27:14;3.78;;;2.10;;
39896;SDS011;25567;48.276;14.242;2023-09-19T08:29:41;6.63;;;1.67;;
39896;SDS011;25567;48.276;14.242;2023-09-19T08:32:08;10.48;;;2.22;;
39896;SDS011;25567;48.276;14.242;2023-09-19T08:34:35;9.13;;;2.05;;
39896;SDS011;25567;48.276;14.242;2023-09-19T08:37:05;7.53;;;1.67;;
39896;SDS011;25567;48.276;14.242;2023-09-19T08:39:31;4.85;;;1.90;;
39896;SDS011;25567;48.276;14.242;2023-09-19T08:42:00;6.93;;;2.05;;
39896;SDS011;25567;48.276;14.242;2023-09-19T08:44:27;5.97;;;1.88;;
39896;SDS011;25567;48.276;14.242;2023-09-19T08:47:09;4.75;;;2.13;;
39896;SDS011;25567;48.276;14.242;2023-09-19T08:49:44;10.68;;;2.03;;
39896;SDS011;25567;48.276;14.242;2023-09-19T08:52:28;5.18;;;2.00;;
39896;SDS011;25567;48.276;14.242;2023-09-19T08:54:58;6.93;;;2.00;;
39896;SDS011;25567;48.276;14.242;2023-09-19T08:57:28;5.70;;;2.05;;
39896;SDS011;25567;48.276;14.242;2023-09-19T08:59:56;5.35;;;1.83;;
39896;SDS011;25567;48.276;14.242;2023-09-19T09:02:23;5.15;;;1.92;;
39896;SDS011;25567;48.276;14.242;2023-09-19T09:04:50;6.40;;;2.25;;
39896;SDS011;25567;48.276;14.242;2023-09-19T09:07:17;2.35;;;1.50;;
39896;SDS011;25567;48.276;14.242;2023-09-19T09:09:45;4.55;;;1.67;;
39896;SDS011;25567;48.276;14.242;2023-09-19T09:12:12;3.22;;;1.58;;
39896;SDS011;25567;48.276;14.242;2023-09-19T09:14:40;4.20;;;1.35;;
39896;SDS011;25567;48.276;14.242;2023-09-19T09:17:06;3.90;;;1.90;;
39896;SDS011;25567;48.276;14.242;2023-09-19T09:19:33;5.95;;;2.10;;
39896;SDS011;25567;48.276;14.242;2023-09-19T09:22:09;5.97;;;1.80;;
39896;SDS011;25567;48.276;14.242;2023-09-19T09:24:37;6.22;;;1.42;;
39896;SDS011;25567;48.276;14.242;2023-09-19T09:27:06;4.22;;;1.80;;
39896;SDS011;25567;48.276;14.242;2023-09-19T09:29:43;5.95;;;1.63;;
39896;SDS011;25567;48.276;14.242;2023-09-19T09:32:19;4.90;;;1.65;;
39896;SDS011;25567;48.276;14.242;2023-09-19T09:34:52;6.57;;;1.50;;
39896;SDS011;25567;48.276;14.242;2023-09-19T09:37:20;4.93;;;1.20;;
39896;SDS011;25567;48.276;14.242;2023-09-19T09:39:50;5.03;;;1.50;;
39896;SDS011;25567;48.276;14.242;2023-09-19T09:44:57;7.53;;;1.55;;
39896;SDS011;25567;48.276;14.242;2023-09-19T09:47:42;3.65;;;1.63;;
39896;SDS011;25567;48.276;14.242;2023-09-19T09:50:26;5.63;;;1.73;;
39896;SDS011;25567;48.276;14.242;2023-09-19T09:53:24;2.92;;;1.30;;
39896;SDS011;25567;48.276;14.242;2023-09-19T09:56:07;7.10;;;1.38;;
39896;SDS011;25567;48.276;14.242;2023-09-19T09:58:34;4.00;;;1.40;;
39896;SDS011;25567;48.276;14.242;2023-09-19T10:01:02;6.85;;;1.85;;
39896;SDS011;25567;48.276;14.242;2023-09-19T10:03:36;6.28;;;1.70;;
39896;SDS011;25567;48.276;14.242;2023-09-19T10:06:10;2.05;;;1.13;;
39896;SDS011;25567;48.276;14.242;2023-09-19T10:11:47;6.82;;;1.50;;
39896;SDS011;25567;48.276;14.242;2023-09-19T10:14:24;7.20;;;1.75;;
39896;SDS011;25567;48.276;14.242;2023-09-19T10:16:51;3.40;;;1.48;;
39896;SDS011;25567;48.276;14.242;2023-09-19T10:19:21;4.38;;;1.40;;
39896;SDS011;25567;48.276;14.242;2023-09-19T10:21:53;7.45;;;1.77;;
39896;SDS011;25567;48.276;14.242;2023-09-19T10:24:20;4.30;;;1.48;;
39896;SDS011;25567;48.276;14.242;2023-09-19T10:26:47;5.13;;;1.65;;
39896;SDS011;25567;48.276;14.242;2023-09-19T10:29:17;5.22;;;1.70;;
39896;SDS011;25567;48.276;14.242;2023-09-19T10:31:44;3.40;;;1.45;;
39896;SDS011;25567;48.276;14.242;2023-09-19T10:34:14;3.53;;;1.20;;
39896;SDS011;25567;48.276;14.242;2023-09-19T10:36:43;3.08;;;1.30;;
39896;SDS011;25567;48.276;14.242;2023-09-19T10:39:11;5.05;;;1.38;;
39896;SDS011;25567;48.276;14.242;2023-09-19T10:41:40;2.97;;;1.30;;
39896;SDS011;25567;48.276;14.242;2023-09-19T10:44:07;4.65;;;1.00;;
39896;SDS011;25567;48.276;14.242;2023-09-19T10:46:35;3.50;;;1.30;;
39896;SDS011;25567;48.276;14.242;2023-09-19T10:49:03;3.25;;;1.38;;
39896;SDS011;25567;48.276;14.242;2023-09-19T10:51:31;4.28;;;1.20;;
39896;SDS011;25567;48.276;14.242;2023-09-19T10:54:10;3.70;;;1.17;;
39896;SDS011;25567;48.276;14.242;2023-09-19T10:56:42;2.67;;;1.00;;
39896;SDS011;25567;48.276;14.242;2023-09-19T10:59:15;3.22;;;1.00;;
39896;SDS011;25567;48.276;14.242;2023-09-19T11:04:24;4.15;;;1.00;;
39896;SDS011;25567;48.276;14.242;2023-09-19T11:07:03;2.72;;;1.25;;
39896;SDS011;25567;48.276;14.242;2023-09-19T11:14:55;2.47;;;0.98;;
39896;SDS011;25567;48.276;14.242;2023-09-19T11:17:37;2.42;;;1.20;;
39896;SDS011;25567;48.276;14.242;2023-09-19T11:30:33;4.75;;;1.42;;
39896;SDS011;25567;48.276;14.242;2023-09-19T11:33:18;2.60;;;1.10;;
39896;SDS011;25567;48.276;14.242;2023-09-19T11:43:46;5.97;;;1.17;;
39896;SDS011;25567;48.276;14.242;2023-09-19T11:46:13;2.60;;;1.25;;
39896;SDS011;25567;48.276;14.242;2023-09-19T11:48:43;5.32;;;1.52;;
39896;SDS011;25567;48.276;14.242;2023-09-19T11:51:24;3.03;;;1.15;;
39896;SDS011;25567;48.276;14.242;2023-09-19T11:53:55;3.90;;;1.05;;
39896;SDS011;25567;48.276;14.242;2023-09-19T11:56:23;4.63;;;1.40;;
39896;SDS011;25567;48.276;14.242;2023-09-19T11:58:51;2.45;;;1.05;;
39896;SDS011;25567;48.276;14.242;2023-09-19T12:01:31;3.80;;;1.05;;
39896;SDS011;25567;48.276;14.242;2023-09-19T12:04:00;6.78;;;1.27;;
39896;SDS011;25567;48.276;14.242;2023-09-19T12:06:29;4.43;;;1.30;;
39896;SDS011;25567;48.276;14.242;2023-09-19T12:09:02;2.17;;;0.93;;
39896;SDS011;25567;48.276;14.242;2023-09-19T12:11:33;4.72;;;1.35;;
39896;SDS011;25567;48.276;14.242;2023-09-19T12:14:10;2.90;;;0.93;;
39896;SDS011;25567;48.276;14.242;2023-09-19T12:16:37;8.18;;;1.23;;
39896;SDS011;25567;48.276;14.242;2023-09-19T12:19:17;2.03;;;1.10;;
39896;SDS011;25567;48.276;14.242;2023-09-19T12:21:44;4.13;;;1.15;;
39896;SDS011;25567;48.276;14.242;2023-09-19T12:24:13;1.77;;;0.90;;
39896;SDS011;25567;48.276;14.242;2023-09-19T12:26:40;2.60;;;1.10;;
39896;SDS011;25567;48.276;14.242;2023-09-19T12:29:14;3.08;;;1.10;;
39896;SDS011;25567;48.276;14.242;2023-09-19T12:31:51;3.70;;;1.00;;
39896;SDS011;25567;48.276;14.242;2023-09-19T12:34:21;5.53;;;1.10;;
39896;SDS011;25567;48.276;14.242;2023-09-19T12:36:49;4.25;;;1.30;;
39896;SDS011;25567;48.276;14.242;2023-09-19T12:39:24;3.17;;;1.30;;
39896;SDS011;25567;48.276;14.242;2023-09-19T12:41:52;5.30;;;1.27;;
39896;SDS011;25567;48.276;14.242;2023-09-19T12:44:19;4.47;;;1.05;;
39896;SDS011;25567;48.276;14.242;2023-09-19T12:46:46;4.75;;;0.90;;
39896;SDS011;25567;48.276;14.242;2023-09-19T12:49:19;2.05;;;1.08;;
39896;SDS011;25567;48.276;14.242;2023-09-19T12:51:46;3.58;;;1.15;;
39896;SDS011;25567;48.276;14.242;2023-09-19T12:54:12;2.83;;;1.02;;
39896;SDS011;25567;48.276;14.242;2023-09-19T12:56:43;3.80;;;1.05;;
39896;SDS011;25567;48.276;14.242;2023-09-19T12:59:15;3.10;;;0.95;;
39896;SDS011;25567;48.276;14.242;2023-09-19T13:01:43;2.03;;;0.80;;
39896;SDS011;25567;48.276;14.242;2023-09-19T13:06:48;1.25;;;0.68;;
39896;SDS011;25567;48.276;14.242;2023-09-19T13:09:16;3.08;;;0.80;;
39896;SDS011;25567;48.276;14.242;2023-09-19T13:11:43;2.67;;;1.10;;
39896;SDS011;25567;48.276;14.242;2023-09-19T13:14:21;2.25;;;0.80;;
39896;SDS011;25567;48.276;14.242;2023-09-19T13:17:10;2.35;;;1.00;;
39896;SDS011;25567;48.276;14.242;2023-09-19T13:19:46;2.88;;;0.75;;
39896;SDS011;25567;48.276;14.242;2023-09-19T13:24:47;3.72;;;0.75;;
39896;SDS011;25567;48.276;14.242;2023-09-19T13:27:17;2.15;;;0.90;;
39896;SDS011;25567;48.276;14.242;2023-09-19T13:29:44;2.30;;;1.00;;
39896;SDS011;25567;48.276;14.242;2023-09-19T13:32:10;3.67;;;1.00;;
39896;SDS011;25567;48.276;14.242;2023-09-19T13:34:38;2.20;;;0.90;;
39896;SDS011;25567;48.276;14.242;2023-09-19T13:37:04;21.65;;;1.27;;
39896;SDS011;25567;48.276;14.242;2023-09-19T13:39:38;9.64;;;1.31;;
39896;SDS011;25567;48.276;14.242;2023-09-19T13:42:08;16.80;;;2.25;;
39896;SDS011;25567;48.276;14.242;2023-09-19T13:44:38;5.57;;;1.23;;
39896;SDS011;25567;48.276;14.242;2023-09-19T13:47:04;10.85;;;1.15;;
39896;SDS011;25567;48.276;14.242;2023-09-19T13:49:36;9.77;;;1.45;;
39896;SDS011;25567;48.276;14.242;2023-09-19T13:52:03;2.53;;;0.60;;
39896;SDS011;25567;48.276;14.242;2023-09-19T13:54:31;2.75;;;0.80;;
39896;SDS011;25567;48.276;14.242;2023-09-19T13:56:58;3.85;;;0.93;;
39896;SDS011;25567;48.276;14.242;2023-09-19T13:59:25;4.72;;;0.80;;
39896;SDS011;25567;48.276;14.242;2023-09-19T14:01:51;1.52;;;0.63;;
39896;SDS011;25567;48.276;14.242;2023-09-19T14:04:20;1.70;;;0.63;;
39896;SDS011;25567;48.276;14.242;2023-09-19T14:06:48;2.47;;;0.63;;
39896;SDS011;25567;48.276;14.242;2023-09-19T14:09:14;3.00;;;0.70;;
39896;SDS011;25567;48.276;14.242;2023-09-19T14:11:42;3.65;;;0.80;;
39896;SDS011;25567;48.276;14.242;2023-09-19T14:14:12;2.08;;;0.60;;
39896;SDS011;25567;48.276;14.242;2023-09-19T14:16:39;0.68;;;0.50;;
39896;SDS011;25567;48.276;14.242;2023-09-19T14:19:08;1.10;;;0.40;;
39896;SDS011;25567;48.276;14.242;2023-09-19T14:21:35;1.75;;;0.50;;
39896;SDS011;25567;48.276;14.242;2023-09-19T14:24:02;1.38;;;0.47;;
39896;SDS011;25567;48.276;14.242;2023-09-19T14:26:29;1.63;;;0.63;;
39896;SDS011;25567;48.276;14.242;2023-09-19T14:28:55;1.45;;;0.77;;
39896;SDS011;25567;48.276;14.242;2023-09-19T14:31:23;1.15;;;0.60;;
39896;SDS011;25567;48.276;14.242;2023-09-19T14:33:55;4.40;;;0.70;;
39896;SDS011;25567;48.276;14.242;2023-09-19T14:36:22;1.27;;;0.73;;
39896;SDS011;25567;48.276;14.242;2023-09-19T14:38:55;2.08;;;1.00;;
39896;SDS011;25567;48.276;14.242;2023-09-19T14:41:21;4.25;;;0.70;;
39896;SDS011;25567;48.276;14.242;2023-09-19T14:43:49;0.73;;;0.50;;
39896;SDS011;25567;48.276;14.242;2023-09-19T14:46:15;1.30;;;0.60;;
39896;SDS011;25567;48.276;14.242;2023-09-19T14:48:42;3.13;;;0.80;;
39896;SDS011;25567;48.276;14.242;2023-09-19T14:51:10;1.63;;;0.65;;
39896;SDS011;25567;48.276;14.242;2023-09-19T14:53:38;1.40;;;0.70;;
39896;SDS011;25567;48.276;14.242;2023-09-19T14:56:05;3.67;;;0.70;;
39896;SDS011;25567;48.276;14.242;2023-09-19T14:58:32;1.10;;;0.70;;
39896;SDS011;25567;48.276;14.242;2023-09-19T15:01:06;6.65;;;0.80;;
39896;SDS011;25567;48.276;14.242;2023-09-19T15:03:33;1.58;;;0.50;;
39896;SDS011;25567;48.276;14.242;2023-09-19T15:06:04;1.35;;;0.70;;
39896;SDS011;25567;48.276;14.242;2023-09-19T15:08:31;0.75;;;0.52;;
39896;SDS011;25567;48.276;14.242;2023-09-19T15:10:58;1.42;;;0.70;;
39896;SDS011;25567;48.276;14.242;2023-09-19T15:13:30;3.67;;;1.13;;
39896;SDS011;25567;48.276;14.242;2023-09-19T15:16:00;2.58;;;0.70;;
39896;SDS011;25567;48.276;14.242;2023-09-19T15:18:28;1.35;;;0.60;;
39896;SDS011;25567;48.276;14.242;2023-09-19T15:20:57;2.45;;;0.63;;
39896;SDS011;25567;48.276;14.242;2023-09-19T15:23:23;2.00;;;0.77;;
39896;SDS011;25567;48.276;14.242;2023-09-19T15:25:58;1.58;;;0.70;;
39896;SDS011;25567;48.276;14.242;2023-09-19T15:28:24;5.35;;;0.60;;